Flight Track Log - Related Links

Times and Time Zones

All times are in EDT time to prevent confusion due to time zone crossing. See the N589H flight status page for this flight to view local times or setup timezone preferences in your user account.

Time Position Orientation Groundspeed Altitude Reporting Facility
EDT Latitude Longitude Course Direction KTS MPH feet Rate Location/Type
Sat 10:08:48 AM 26.2525 -81.7719 North 170 196 3,700  Level Miami Center
Sat 10:09:47 AM 26.3047 -81.7764 356° North 197 227 5,400 1,850 Climbing Miami Center
Sat 10:10:48 AM 26.3650 -81.7836 354° North 212 244 7,400 1,850 Climbing Miami Center
Sat 10:11:47 AM 26.4253 -81.7931 352° North 230 265 9,100 1,850 Climbing Miami Center
Sat 10:12:48 AM 26.4978 -81.8031 353° North 235 270 11,100 1,884 Climbing Miami Center
Sat 10:13:00 AM 26.7188 -81.8333 North  Level FlightAware Approximate
Sat 10:13:48 AM 26.5686 -81.8128 353° North 240 276 12,900  Level Miami Center
Sat 10:14:00 AM 26.8143 -81.8333 North  Level FlightAware Approximate
Sat 10:14:48 AM 26.6372 -81.8206 354° North 240 276 14,700  Level Miami Center
Sat 10:15:48 AM 26.7017 -81.8231 358° North 240 276 17,100 1,650 Climbing Miami Center
Sat 10:16:48 AM 26.7603 -81.8233 360° North 235 270 18,000 450 Climbing Miami Center
Sat 10:17:48 AM 26.8436 -81.8269 358° North 265 305 18,000 150 Level Miami Center
Sat 10:18:48 AM 26.9411 -81.8425 352° North 304 350 18,300 950 Climbing Miami Center
Sat 10:19:48 AM 27.0242 -81.8556 352° North 309 356 19,900 1,550 Climbing Miami Center
Sat 10:20:48 AM 27.1031 -81.8706 350° North 299 344 21,400 1,412 Climbing Miami Center
Sat 10:21:47 AM 27.1819 -81.8808 353° North 285 328 22,700 4,800 Climbing Miami Center
Sat 10:22:48 AM 27.2547 -81.8936 351° North 267 307 31,000 1,150 Climbing Miami Center
Sat 10:23:47 AM 27.3200 -81.8731 16° North 262 302 25,000 -2,571 Descending Miami Center
Sat 10:24:47 AM 27.4047 -81.8344 22° Northeast 287 330 25,900 942 Climbing Miami Center
Sat 10:25:48 AM 27.4853 -81.8006 20° North 297 342 26,900 1,000 Climbing Miami Center
Sat 10:26:47 AM 27.5594 -81.7686 21° North 297 342 27,900 958 Climbing Miami Center
Sat 10:27:47 AM 27.6272 -81.7389 21° North 292 336 28,800 893 Climbing Miami Center
Sat 10:28:48 AM 27.7097 -81.7047 20° North 292 336 29,700 800 Climbing Miami Center
Sat 10:29:47 AM 27.7839 -81.6706 22° Northeast 292 336 30,400 655 Climbing Miami Center
Sat 10:30:47 AM 27.8581 -81.6383 21° North 292 336 31,000 298 Climbing Miami Center
Sat 10:31:48 AM 27.9364 -81.6017 22° Northeast 292 336 31,000  Level Miami Center
Sat 10:32:48 AM 28.0189 -81.5675 20° North 303 349 31,000  Level Miami Center
Sat 10:33:48 AM 28.1036 -81.5311 21° North 309 356 31,000  Level Miami Center
Sat 10:34:48 AM 28.1883 -81.4922 22° Northeast 314 361 31,000  Level Miami Center
Sat 10:35:48 AM 28.2725 -81.4697 13° North 314 361 31,000  Level Miami Center
Sat 10:36:48 AM 28.3600 -81.4756 357° North 301 346 31,000  Level Miami Center
Sat 10:37:48 AM 28.4433 -81.4767 359° North 296 341 31,000  Level Miami Center
Sat 10:39:05 AM 28.5469 -81.4794 359° North 300 345 31,000  Level Jacksonville Center
Sat 10:40:05 AM 28.6325 -81.4828 358° North 305 351 31,000  Level Jacksonville Center
Sat 10:41:05 AM 28.7181 -81.4839 359° North 310 357 31,000  Level Jacksonville Center
Sat 10:42:05 AM 28.8039 -81.4853 359° North 310 357 31,000  Level Jacksonville Center
Sat 10:43:05 AM 28.8889 -81.4508 20° North 315 362 31,000  Level Jacksonville Center
Sat 10:44:05 AM 28.9761 -81.3972 28° Northeast 322 371 31,000  Level Jacksonville Center
Sat 10:45:05 AM 29.0653 -81.3508 24° Northeast 334 384 31,000  Level Jacksonville Center
Sat 10:46:05 AM 29.1544 -81.2994 27° Northeast 339 390 31,000  Level Jacksonville Center
Sat 10:47:05 AM 29.2394 -81.2528 26° Northeast 339 390 31,000  Level Jacksonville Center
Sat 10:48:05 AM 29.3264 -81.2039 26° Northeast 339 390 31,000  Level Jacksonville Center
Sat 10:49:05 AM 29.4153 -81.1500 28° Northeast 339 390 31,000  Level Jacksonville Center
Sat 10:50:05 AM 29.5067 -81.1028 24° Northeast 334 384 31,000  Level Jacksonville Center
Sat 10:51:05 AM 29.5936 -81.0536 26° Northeast 334 384 31,000  Level Jacksonville Center
Sat 10:52:05 AM 29.6764 -81.0042 27° Northeast 339 390 31,000  Level Jacksonville Center
Sat 10:53:05 AM 29.7653 -80.9522 27° Northeast 339 390 31,000  Level Jacksonville Center
Sat 10:54:05 AM 29.8503 -80.9075 25° Northeast 339 390 31,000  Level Jacksonville Center
Sat 10:55:05 AM 29.9350 -80.8578 27° Northeast 339 390 31,000  Level Jacksonville Center
Sat 10:56:05 AM 30.0197 -80.8081 27° Northeast 339 390 31,000  Level Jacksonville Center
Sat 10:57:05 AM 30.1025 -80.7581 28° Northeast 339 390 31,000  Level Jacksonville Center
Sat 10:58:05 AM 30.1914 -80.7106 25° Northeast 339 390 31,000  Level Jacksonville Center
Sat 10:59:05 AM 30.2761 -80.6606 27° Northeast 339 390 31,000  Level Jacksonville Center
Sat 11:00:05 AM 30.3631 -80.6103 27° Northeast 339 390 31,000  Level Jacksonville Center
Sat 11:01:05 AM 30.4519 -80.5625 25° Northeast 339 390 31,000  Level Jacksonville Center
Sat 11:02:05 AM 30.5344 -80.5097 29° Northeast 339 390 31,000  Level Jacksonville Center
Sat 11:03:05 AM 30.6233 -80.4617 25° Northeast 339 390 31,000  Level Jacksonville Center
Sat 11:04:05 AM 30.7058 -80.4089 29° Northeast 339 390 31,000  Level Jacksonville Center
Sat 11:05:05 AM 30.7967 -80.3581 26° Northeast 344 396 31,000  Level Jacksonville Center
Sat 11:06:05 AM 30.8811 -80.3050 28° Northeast 344 396 31,000  Level Jacksonville Center
Sat 11:07:05 AM 30.9700 -80.2567 25° Northeast 344 396 31,000  Level Jacksonville Center
Sat 11:08:05 AM 31.0650 -80.2103 23° Northeast 344 396 31,000  Level Jacksonville Center
Sat 11:09:05 AM 31.1475 -80.1544 30° Northeast 337 388 31,000  Level Jacksonville Center
Sat 11:10:05 AM 31.2361 -80.1058 25° Northeast 352 405 31,000  Level Jacksonville Center
Sat 11:11:05 AM 31.3225 -80.0522 28° Northeast 347 399 31,000  Level Jacksonville Center
Sat 11:12:05 AM 31.4008 -80.0036 28° Northeast 342 394 31,000  Level Jacksonville Center
Sat 11:13:05 AM 31.4872 -79.9519 27° Northeast 342 394 31,000  Level Jacksonville Center
Sat 11:14:05 AM 31.5758 -79.9006 26° Northeast 342 394 31,000  Level Jacksonville Center
Sat 11:15:05 AM 31.6644 -79.8489 26° Northeast 342 394 31,000  Level Jacksonville Center
Sat 11:16:05 AM 31.7528 -79.7922 29° Northeast 342 394 31,000  Level Jacksonville Center
Sat 11:17:05 AM 31.8414 -79.7428 25° Northeast 342 394 31,000  Level Jacksonville Center
Sat 11:18:05 AM 31.9317 -79.6858 28° Northeast 342 394 31,000  Level Jacksonville Center
Sat 11:19:05 AM 32.0181 -79.6339 27° Northeast 342 394 31,000  Level Jacksonville Center
Sat 11:20:05 AM 32.1067 -79.5817 27° Northeast 342 394 31,000 150 Level Jacksonville Center
Sat 11:21:05 AM 32.1950 -79.5319 25° Northeast 342 394 31,300 400 Climbing Jacksonville Center
Sat 11:22:05 AM 32.2792 -79.4772 29° Northeast 342 394 31,800 550 Climbing Jacksonville Center
Sat 11:23:05 AM 32.3614 -79.4272 27° Northeast 337 388 32,400 550 Climbing Jacksonville Center
Sat 11:24:05 AM 32.4414 -79.3825 25° Northeast 332 382 32,900 300 Climbing Jacksonville Center
Sat 11:25:05 AM 32.5256 -79.3300 28° Northeast 327 376 33,000 50 Climbing Jacksonville Center
Sat 11:26:05 AM 32.6078 -79.2797 27° Northeast 327 376 33,000  Level Jacksonville Center
Sat 11:27:05 AM 32.6917 -79.2269 28° Northeast 322 371 33,000  Level Jacksonville Center
Sat 11:28:05 AM 32.7778 -79.1767 26° Northeast 327 376 33,000  Level Jacksonville Center
Sat 11:29:05 AM 32.8639 -79.1211 28° Northeast 339 390 33,000  Level Jacksonville Center
Sat 11:30:05 AM 32.9644 -79.0600 27° Northeast 347 399 33,000  Level Jacksonville Center
Sat 11:31:05 AM 33.0503 -79.0069 27° Northeast 347 399 33,000  Level Jacksonville Center
Sat 11:32:05 AM 33.1383 -78.9508 28° Northeast 352 405 33,000  Level Jacksonville Center
Sat 11:33:05 AM 33.2286 -78.8972 26° Northeast 352 405 33,000  Level Jacksonville Center
Sat 11:34:05 AM 33.3186 -78.8411 28° Northeast 352 405 33,000  Level Jacksonville Center
Sat 11:35:05 AM 33.4044 -78.7850 29° Northeast 357 411 33,000  Level Jacksonville Center
Sat 11:36:05 AM 33.4964 -78.7308 26° Northeast 362 417 33,000  Level Jacksonville Center
Sat 11:37:05 AM 33.5864 -78.6742 28° Northeast 362 417 33,000  Level Jacksonville Center
Sat 11:38:40 AM 33.7192 -78.5900 28° Northeast 358 412 33,000  Level Washington Center
Sat 11:39:41 AM 33.8122 -78.5361 26° Northeast 358 412 33,000 545 Level Washington Center
Sat 11:40:41 AM 33.9014 -78.4792 28° Northeast 358 412 34,100 814 Climbing Washington Center
Sat 11:41:39 AM 33.9858 -78.4269 27° Northeast 358 412 34,600 454 Climbing Washington Center
Sat 11:42:40 AM 34.0706 -78.3747 27° Northeast 353 406 35,000 197 Climbing Washington Center
Sat 11:43:41 AM 34.1594 -78.3200 27° Northeast 353 406 35,000  Level Washington Center
Sat 11:44:39 AM 34.2442 -78.2650 28° Northeast 353 406 35,000  Level Washington Center
Sat 11:45:39 AM 34.3331 -78.2075 28° Northeast 353 406 35,000  Level Washington Center
Sat 11:46:40 AM 34.4200 -78.1500 29° Northeast 353 406 35,000  Level Washington Center
Sat 11:47:41 AM 34.5086 -78.0947 27° Northeast 353 406 35,000  Level Washington Center
Sat 11:48:39 AM 34.5997 -78.0344 29° Northeast 353 406 35,000  Level Washington Center
Sat 11:49:40 AM 34.6906 -77.9764 28° Northeast 358 412 35,000  Level Washington Center
Sat 11:50:40 AM 34.7794 -77.9183 28° Northeast 358 412 35,000 -252 Level Washington Center
Sat 11:51:39 AM 34.8703 -77.8553 30° Northeast 358 412 34,500 -504 Descending Washington Center
Sat 11:52:39 AM 34.9675 -77.7944 27° Northeast 368 423 34,000 -496 Descending Washington Center
Sat 11:53:40 AM 35.0667 -77.7314 27° Northeast 381 438 33,500 -492 Descending Washington Center
Sat 11:54:41 AM 35.1636 -77.6653 29° Northeast 392 451 33,000 -252 Descending Washington Center
Sat 11:55:39 AM 35.2650 -77.6017 27° Northeast 397 457 33,000  Level Washington Center
Sat 11:56:40 AM 35.3619 -77.5378 28° Northeast 397 457 33,000  Level Washington Center
Sat 11:57:40 AM 35.4611 -77.4739 28° Northeast 397 457 33,000  Level Washington Center
Sat 11:58:39 AM 35.5581 -77.4100 28° Northeast 397 457 33,000  Level Washington Center
Sat 11:59:39 AM 35.6550 -77.3456 28° Northeast 397 457 33,000  Level Washington Center
Sat 12:00:40 PM 35.7539 -77.2786 29° Northeast 397 457 33,000  Level Washington Center
Sat 12:02:39 PM 35.9478 -77.1494 29° Northeast 397 457 33,000  Level Washington Center
Sat 12:03:40 PM 36.0444 -77.0872 27° Northeast 397 457 33,000  Level Washington Center
Sat 12:04:40 PM 36.1433 -77.0219 28° Northeast 397 457 33,000  Level Washington Center
Sat 12:05:41 PM 36.2400 -76.9569 28° Northeast 397 457 33,000 -166 Level Washington Center
Sat 12:07:41 PM 36.4378 -76.8233 29° Northeast 397 457 32,500 -302 Descending Washington Center
Sat 12:08:40 PM 36.5386 -76.7553 28° Northeast 397 457 32,100 -454 Descending Washington Center
Sat 12:09:40 PM 36.6392 -76.6842 30° Northeast 397 457 31,600 -446 Descending Washington Center
Sat 12:10:41 PM 36.7422 -76.6131 29° Northeast 402 463 31,200 -446 Descending Washington Center
Sat 12:11:41 PM 36.8428 -76.5444 29° Northeast 407 468 30,700 -454 Descending Washington Center
Sat 12:12:40 PM 36.9456 -76.4703 30° Northeast 412 474 30,300 -450 Descending Washington Center
Sat 12:13:41 PM 37.0506 -76.3986 29° Northeast 417 480 29,800 -443 Descending Washington Center
Sat 12:14:42 PM 37.1531 -76.3294 28° Northeast 417 480 29,400 -403 Descending Washington Center
Sat 12:15:40 PM 37.2683 -76.2494 29° Northeast 417 480 29,000 -202 Descending Washington Center
Sat 12:16:41 PM 37.3731 -76.1772 29° Northeast 417 480 29,000  Level Washington Center
Sat 12:17:40 PM 37.4797 -76.1047 28° Northeast 417 480 29,000  Level Washington Center
Sat 12:18:40 PM 37.5822 -76.0347 28° Northeast 417 480 29,000  Level Washington Center
Sat 12:19:40 PM 37.6867 -75.9619 29° Northeast 417 480 29,000  Level Washington Center
Sat 12:20:41 PM 37.7850 -75.8861 31° Northeast 417 480 29,000 -99 Level Washington Center
Sat 12:21:41 PM 37.8956 -75.8156 27° Northeast 417 480 28,800 -504 Descending Washington Center
Sat 12:22:40 PM 38.0000 -75.7367 31° Northeast 427 491 28,000 -807 Descending Washington Center
Sat 12:23:40 PM 38.1022 -75.6603 30° Northeast 427 491 27,200 -496 Descending Washington Center
Sat 12:24:41 PM 38.2003 -75.5733 35° Northeast 427 491 27,000 -101 Descending Washington Center
Sat 12:25:39 PM 38.2961 -75.4781 38° Northeast 427 491 27,000  Level Washington Center
Sat 12:26:39 PM 38.3772 -75.3931 39° Northeast 433 498 27,000 -248 Level Washington Center
Sat 12:27:40 PM 38.4731 -75.2947 39° Northeast 428 493 26,500 -843 Descending Washington Center
Sat 12:28:40 PM 38.5769 -75.2306 26° Northeast 423 487 25,300 -1,240 Descending Washington Center
Sat 12:29:41 PM 38.6831 -75.1583 28° Northeast 418 481 24,000 -1,311 Descending Washington Center
Sat 12:30:39 PM 38.7831 -75.0936 27° Northeast 413 475 22,700 -1,322 Descending Washington Center
Sat 12:31:39 PM 38.8828 -75.0264 28° Northeast 402 463 21,400 -1,388 Descending Washington Center
Sat 12:32:40 PM 38.9783 -74.9614 28° Northeast 396 456 19,900 -1,475 Descending Washington Center
Sat 12:33:41 PM 39.0739 -74.8964 28° Northeast 390 449 18,400 -1,613 Descending Washington Center
Sat 12:34:39 PM 39.1672 -74.8472 22° Northeast 380 437 16,700 -1,780 Descending Washington Center
Sat 12:35:39 PM 39.2608 -74.8117 16° North 369 425 14,900 -1,642 Descending Washington Center
Sat 12:38:11 PM 39.4744 -74.6786 26° Northeast 338 389 10,900 -1,493 Descending New York Center
Sat 12:39:12 PM 39.5511 -74.6192 31° Northeast 327 376 9,600 -1,268 Descending New York Center
Sat 12:40:14 PM 39.6278 -74.5606 30° Northeast 324 373 8,300 -1,355 Descending New York Center
Sat 12:41:16 PM 39.7178 -74.4892 31° Northeast 321 369 6,800 -1,355 Descending New York Center
Sat 12:42:18 PM 39.7925 -74.4328 30° Northeast 304 350 5,500 -1,258 Descending New York Center
Sat 12:43:20 PM 39.8625 -74.3781 31° Northeast 283 326 4,200 -1,073 Descending New York Center
Sat 12:44:21 PM 39.9286 -74.3286 30° Northeast 262 302 3,300 -976 Descending New York Center
Sat 12:45:23 PM 39.9919 -74.2792 31° Northeast 258 297 2,200 -629 Descending New York Center
Sat 12:46:25 PM 40.0514 -74.2331 31° Northeast 239 275 2,000 -145 Descending New York Center
Sat 12:47:27 PM 40.1069 -74.1861 33° Northeast 231 266 1,900 -194 Descending New York Center
Sat 12:48:29 PM 40.1436 -74.1322 48° Northeast 209 241 1,600 -677 Descending New York Center
Sat 12:49:31 PM 40.1728 -74.1050 35° Northeast 131 151 500 -585 Descending New York Center
Sat 12:50:32 PM 40.1925 -74.1342 312° West 125 144 400 -98 Descending New York Center

Login

Don't have an account? Register now (free) for customized features, flight alerts, and more!